createdAt,value
2022-08-05T00:02:11.385Z,99.90
2022-08-05T00:04:40.294Z,99.90
2022-08-05T00:07:58.710Z,99.90
2022-08-05T00:09:54.582Z,99.90
2022-08-05T00:12:21.485Z,99.90
2022-08-05T00:14:51.749Z,99.90
2022-08-05T00:17:28.679Z,99.90
2022-08-05T00:20:02.585Z,99.90
2022-08-05T00:22:29.897Z,99.90
2022-08-05T00:24:58.129Z,99.90
2022-08-05T00:27:28.646Z,99.90
2022-08-05T00:30:04.739Z,99.90
2022-08-05T00:32:31.543Z,99.90
2022-08-05T00:35:06.311Z,99.90
2022-08-05T00:37:51.267Z,99.90
2022-08-05T00:40:26.862Z,99.90
2022-08-05T00:42:56.671Z,99.90
2022-08-05T00:45:38.144Z,99.90
2022-08-05T00:48:06.898Z,99.90
2022-08-05T00:50:33.928Z,99.90
2022-08-05T00:53:01.012Z,99.90
2022-08-05T00:55:42.298Z,99.90
2022-08-05T00:58:11.590Z,99.90
2022-08-05T01:00:40.791Z,99.90
2022-08-05T01:03:10.604Z,99.90
2022-08-05T01:05:49.920Z,99.90
2022-08-05T01:08:43.183Z,99.90
2022-08-05T01:11:22.687Z,99.90
2022-08-05T01:13:59.586Z,99.90
2022-08-05T01:16:33.722Z,99.90
2022-08-05T01:19:12.166Z,99.90
2022-08-05T01:21:54.858Z,99.90
2022-08-05T01:24:44.909Z,99.90
2022-08-05T01:27:25.554Z,99.90
2022-08-05T01:29:59.704Z,99.90
2022-08-05T01:32:31.885Z,99.90
2022-08-05T01:35:03.344Z,99.90
2022-08-05T01:37:44.253Z,99.90
2022-08-05T01:40:12.628Z,99.90
2022-08-05T01:42:41.092Z,99.90
2022-08-05T01:45:10.683Z,99.90
2022-08-05T01:47:43.437Z,99.90
2022-08-05T01:50:14.290Z,99.90
2022-08-05T01:52:44.191Z,99.90
2022-08-05T01:55:13.362Z,99.90
2022-08-05T01:58:10.549Z,99.90
2022-08-05T02:00:33.494Z,99.90
2022-08-05T02:03:04.128Z,99.90
2022-08-05T02:05:34.520Z,99.90
2022-08-05T02:08:04.119Z,99.90
2022-08-05T02:10:36.038Z,99.90
2022-08-05T02:13:15.835Z,99.90
2022-08-05T02:15:50.263Z,99.90
2022-08-05T02:18:31.906Z,99.90
2022-08-05T02:21:06.475Z,99.90
2022-08-05T02:23:45.044Z,99.90
2022-08-05T02:26:17.161Z,99.90
2022-08-05T02:28:46.257Z,99.90
2022-08-05T02:31:21.209Z,99.90
2022-08-05T02:33:57.726Z,99.90
2022-08-05T02:36:27.498Z,99.90
2022-08-05T02:39:00.533Z,99.90
2022-08-05T02:41:43.430Z,99.90
2022-08-05T02:44:16.897Z,99.90
2022-08-05T02:46:58.995Z,99.90
2022-08-05T02:49:37.143Z,99.90
2022-08-05T02:52:07.943Z,99.90
2022-08-05T02:54:42.142Z,99.90
2022-08-05T02:58:19.634Z,99.90
2022-08-05T02:59:59.911Z,99.90
2022-08-05T03:02:34.502Z,99.90
2022-08-05T03:05:01.865Z,99.90
2022-08-05T03:08:01.930Z,99.90
2022-08-05T03:10:24.433Z,99.90
2022-08-05T03:12:52.052Z,99.90
2022-08-05T03:15:20.723Z,99.90
2022-08-05T03:17:48.930Z,99.90
2022-08-05T03:20:21.368Z,99.90
2022-08-05T03:22:50.694Z,99.90
2022-08-05T03:26:03.730Z,99.90
2022-08-05T03:28:08.459Z,99.90
2022-08-05T03:30:36.700Z,99.90
2022-08-05T03:33:07.340Z,99.90
2022-08-05T03:35:41.686Z,99.90
2022-08-05T03:38:11.217Z,99.90
2022-08-05T03:40:40.908Z,99.90
2022-08-05T03:43:58.531Z,99.90
2022-08-05T03:45:57.884Z,99.90
2022-08-05T03:48:27.508Z,99.90
2022-08-05T03:52:37.589Z,99.90
2022-08-05T03:55:53.358Z,99.90
2022-08-05T03:56:42.103Z,99.90
2022-08-05T03:59:15.117Z,99.90
2022-08-05T04:01:49.727Z,99.90
2022-08-05T04:04:21.525Z,99.90
2022-08-05T04:06:51.095Z,99.90
2022-08-05T04:09:20.182Z,99.90
2022-08-05T04:11:53.904Z,99.90
2022-08-05T04:14:30.296Z,99.90
2022-08-05T04:16:58.881Z,99.90
2022-08-05T04:19:27.980Z,99.90
2022-08-05T04:22:09.812Z,99.90
2022-08-05T04:27:06.881Z,99.90
2022-08-05T04:29:34.390Z,99.90
2022-08-05T04:32:01.421Z,99.90
2022-08-05T04:34:32.792Z,99.90
2022-08-05T04:39:30.159Z,99.90
2022-08-05T04:41:57.128Z,99.90
2022-08-05T04:44:29.312Z,99.90
2022-08-05T04:46:57.147Z,99.90
2022-08-05T04:50:01.515Z,99.90
2022-08-05T04:52:13.435Z,99.90
2022-08-05T04:54:40.549Z,99.90
2022-08-05T04:57:07.319Z,99.90
2022-08-05T04:59:39.214Z,99.90
2022-08-05T05:02:36.795Z,99.90
2022-08-05T05:05:01.736Z,99.90
2022-08-05T05:07:32.673Z,99.90
2022-08-05T05:10:05.301Z,99.90
2022-08-05T05:12:33.376Z,99.90
2022-08-05T05:15:03.752Z,99.90
2022-08-05T05:17:56.778Z,99.90
2022-08-05T05:20:28.676Z,99.90
2022-08-05T05:22:57.069Z,99.90
2022-08-05T05:25:40.340Z,99.90
2022-08-05T05:28:07.770Z,99.90
2022-08-05T05:30:36.212Z,99.90
2022-08-05T05:33:15.969Z,99.90
2022-08-05T05:35:45.126Z,99.90
2022-08-05T05:38:14.381Z,99.90
2022-08-05T05:40:46.631Z,99.90
2022-08-05T05:43:16.375Z,99.90
2022-08-05T05:45:54.630Z,99.90
2022-08-05T05:48:27.382Z,99.90
2022-08-05T05:50:54.733Z,99.90
2022-08-05T05:53:23.058Z,99.90
2022-08-05T05:55:52.531Z,99.90
2022-08-05T05:58:31.792Z,99.90
2022-08-05T06:01:12.220Z,99.90
2022-08-05T06:04:01.794Z,99.90
2022-08-05T06:06:27.975Z,99.90
2022-08-05T06:08:59.863Z,99.90
2022-08-05T06:11:26.645Z,99.90
2022-08-05T06:13:55.983Z,99.90
2022-08-05T06:16:28.661Z,99.90
2022-08-05T06:18:59.907Z,99.90
2022-08-05T06:21:35.742Z,99.90
2022-08-05T06:24:07.757Z,99.90
2022-08-05T06:26:39.333Z,99.90
2022-08-05T06:29:23.617Z,99.90
2022-08-05T06:31:52.958Z,99.90
2022-08-05T06:34:20.371Z,99.90
2022-08-05T06:36:57.533Z,99.90
2022-08-05T06:39:27.993Z,99.90
2022-08-05T06:41:56.108Z,99.90
2022-08-05T06:44:25.996Z,99.90
2022-08-05T06:46:54.409Z,99.90
2022-08-05T06:49:59.814Z,99.90
2022-08-05T06:52:08.116Z,99.90
2022-08-05T06:54:56.128Z,99.90
2022-08-05T06:58:03.811Z,99.90
2022-08-05T07:00:10.949Z,99.90
2022-08-05T07:02:42.463Z,99.90
2022-08-05T07:05:18.478Z,99.90
2022-08-05T07:07:48.902Z,99.90
2022-08-05T07:10:17.014Z,99.90
2022-08-05T07:13:02.575Z,99.90
2022-08-05T07:16:01.088Z,99.90
2022-08-05T07:18:30.410Z,99.90
2022-08-05T07:20:57.717Z,99.90
2022-08-05T07:23:26.250Z,99.90
2022-08-05T07:25:57.768Z,99.90
2022-08-05T07:28:25.249Z,99.90
2022-08-05T07:30:55.202Z,99.90
2022-08-05T07:33:36.587Z,99.90
2022-08-05T07:36:20.642Z,99.90
2022-08-05T07:38:49.043Z,99.90
2022-08-05T07:42:13.898Z,99.90
2022-08-05T07:44:14.531Z,99.90
2022-08-05T07:46:48.411Z,99.90
2022-08-05T07:49:15.935Z,99.90
2022-08-05T07:51:53.389Z,99.90
2022-08-05T07:54:30.704Z,99.90
2022-08-05T07:57:22.754Z,99.90
2022-08-05T07:59:49.893Z,99.90
2022-08-05T08:02:17.799Z,99.90
2022-08-05T08:04:47.071Z,99.90
2022-08-05T08:07:15.202Z,99.90
2022-08-05T08:09:42.739Z,99.90
2022-08-05T08:12:35.310Z,99.90
2022-08-05T08:15:02.231Z,99.90
2022-08-05T08:17:30.370Z,99.90
2022-08-05T08:20:21.051Z,99.90
2022-08-05T08:22:44.194Z,99.90
2022-08-05T08:25:16.450Z,99.90
2022-08-05T08:27:51.105Z,99.90
2022-08-05T08:30:32.851Z,99.90
2022-08-05T08:33:08.497Z,99.90
2022-08-05T08:35:40.887Z,99.90
2022-08-05T08:38:08.481Z,99.90
2022-08-05T08:40:39.137Z,99.90
2022-08-05T08:45:16.332Z,99.90
2022-08-05T08:45:56.433Z,99.90
2022-08-05T08:49:04.149Z,99.90
2022-08-05T08:52:01.937Z,99.90
2022-08-05T08:53:58.518Z,99.90
2022-08-05T08:56:27.706Z,99.90
2022-08-05T08:58:59.191Z,99.90
2022-08-05T09:01:27.973Z,99.90
2022-08-05T09:03:57.541Z,99.90
2022-08-05T09:06:28.059Z,99.90
2022-08-05T09:08:58.733Z,99.90
2022-08-05T09:11:53.194Z,99.90
2022-08-05T09:14:56.617Z,99.90
2022-08-05T09:17:01.049Z,99.90
2022-08-05T09:19:36.850Z,99.90
2022-08-05T09:22:23.298Z,99.90
2022-08-05T09:24:59.391Z,99.90
2022-08-05T09:28:05.387Z,99.90
2022-08-05T09:30:23.230Z,99.90
2022-08-05T09:32:51.574Z,99.90
2022-08-05T09:35:26.641Z,99.90
2022-08-05T09:38:12.983Z,99.90
2022-08-05T09:40:52.720Z,99.90
2022-08-05T09:43:41.421Z,99.90
2022-08-05T09:46:27.657Z,99.90
2022-08-05T09:49:08.147Z,99.90
2022-08-05T09:51:43.366Z,99.90
2022-08-05T09:54:11.333Z,99.90
2022-08-05T09:56:39.338Z,99.90
2022-08-05T09:59:08.579Z,99.90
2022-08-05T10:01:40.286Z,99.90
2022-08-05T10:04:16.063Z,99.90
2022-08-05T10:06:59.658Z,99.90
2022-08-05T10:09:29.601Z,99.90
2022-08-05T10:12:30.414Z,99.90
2022-08-05T10:15:17.111Z,99.90
2022-08-05T10:18:10.088Z,99.90
2022-08-05T10:20:41.799Z,99.90
2022-08-05T10:23:34.168Z,99.90
2022-08-05T10:32:48.282Z,99.90
2022-08-05T10:34:07.973Z,99.90
2022-08-05T10:36:36.793Z,99.90
2022-08-05T10:39:11.554Z,99.90
2022-08-05T10:41:47.773Z,99.90
2022-08-05T10:44:18.223Z,99.90
2022-08-05T10:46:51.162Z,99.90
2022-08-05T10:49:27.143Z,99.90
2022-08-05T10:52:00.694Z,99.90
2022-08-05T10:54:56.865Z,99.90
2022-08-05T10:57:31.033Z,99.90
2022-08-05T11:00:17.977Z,99.90
2022-08-05T11:03:23.585Z,99.90
2022-08-05T11:06:05.904Z,99.90
2022-08-05T11:08:38.067Z,99.90
2022-08-05T11:11:52.935Z,99.90
2022-08-05T11:15:11.622Z,99.90
2022-08-05T11:17:59.100Z,99.90
2022-08-05T11:20:43.894Z,99.90
2022-08-05T11:24:05.500Z,99.90
2022-08-05T11:26:37.966Z,99.90
2022-08-05T11:29:12.757Z,99.90
2022-08-05T11:31:54.334Z,99.90
2022-08-05T11:34:51.764Z,99.90
2022-08-05T11:38:37.398Z,99.90
2022-08-05T11:41:15.497Z,99.90
2022-08-05T11:44:06.655Z,99.90
2022-08-05T11:46:36.373Z,99.90
2022-08-05T11:49:05.238Z,99.90
2022-08-05T11:51:44.302Z,99.90
2022-08-05T11:54:33.831Z,99.90
2022-08-05T11:57:08.723Z,99.90
2022-08-05T11:59:51.701Z,99.90
2022-08-05T12:02:31.838Z,99.90
2022-08-05T12:05:01.293Z,99.90
2022-08-05T12:08:10.541Z,99.90
2022-08-05T12:10:43.387Z,99.90
2022-08-05T12:13:17.228Z,99.90
2022-08-05T12:15:49.684Z,99.90
2022-08-05T12:18:18.131Z,99.90
2022-08-05T12:20:47.485Z,99.90
2022-08-05T12:23:14.675Z,99.90
2022-08-05T12:25:53.386Z,99.90
2022-08-05T12:28:36.727Z,99.90
2022-08-05T12:31:04.660Z,99.90
2022-08-05T12:33:37.105Z,99.90
2022-08-05T12:36:09.368Z,99.90
2022-08-05T12:38:39.630Z,99.90
2022-08-05T12:41:13.170Z,99.90
2022-08-05T12:43:53.775Z,99.90
2022-08-05T12:46:28.868Z,99.90
2022-08-05T12:49:00.559Z,99.90
2022-08-05T12:52:13.116Z,99.90
2022-08-05T12:54:23.511Z,99.90
2022-08-05T12:56:52.535Z,99.90
2022-08-05T12:59:27.641Z,99.90
2022-08-05T13:02:10.663Z,99.90
2022-08-05T13:04:41.891Z,99.90
2022-08-05T13:07:55.021Z,99.90
2022-08-05T13:10:11.713Z,99.90
2022-08-05T13:12:50.671Z,99.90
2022-08-05T13:15:42.185Z,99.90
2022-08-05T13:18:18.795Z,99.90
2022-08-05T13:20:47.182Z,99.90
2022-08-05T13:23:16.391Z,99.90
2022-08-05T13:25:51.981Z,99.90
2022-08-05T13:28:26.145Z,99.90
2022-08-05T13:30:54.430Z,99.90
2022-08-05T13:34:22.109Z,99.90
2022-08-05T13:36:09.121Z,99.90
2022-08-05T13:38:38.455Z,99.90
2022-08-05T13:41:09.977Z,99.90
2022-08-05T13:43:45.652Z,99.90
2022-08-05T13:46:37.690Z,99.90
2022-08-05T13:49:11.675Z,99.90
2022-08-05T13:51:41.775Z,99.90
2022-08-05T13:54:15.375Z,99.90
2022-08-05T13:56:45.434Z,99.90
2022-08-05T13:59:21.104Z,99.90
2022-08-05T14:01:56.585Z,99.90
2022-08-05T14:04:50.171Z,99.90
2022-08-05T14:07:26.282Z,99.90
2022-08-05T14:10:08.414Z,99.90
2022-08-05T14:12:36.371Z,99.90
2022-08-05T14:16:03.982Z,99.90
2022-08-05T14:17:51.703Z,99.90
2022-08-05T14:20:27.429Z,99.90
2022-08-05T14:22:54.430Z,99.90
2022-08-05T14:25:22.500Z,99.90
2022-08-05T14:27:54.818Z,99.90
2022-08-05T14:30:22.219Z,99.90
2022-08-05T14:32:53.715Z,99.90
2022-08-05T14:35:22.838Z,99.90
2022-08-05T14:37:53.572Z,99.90
2022-08-05T14:40:24.383Z,99.90
2022-08-05T14:42:52.037Z,99.90
2022-08-05T14:45:18.880Z,99.90
2022-08-05T14:48:05.188Z,99.90
2022-08-05T14:50:36.140Z,99.90
2022-08-05T14:53:07.996Z,99.90
2022-08-05T14:55:39.008Z,99.90
2022-08-05T14:58:11.307Z,99.90
2022-08-05T15:03:27.307Z,98.90
2022-08-05T15:06:13.088Z,97.80
2022-08-05T15:08:59.233Z,98.30
2022-08-05T15:11:52.674Z,97.80
2022-08-05T15:14:33.572Z,98.40
2022-08-05T15:17:04.253Z,98.80
2022-08-05T15:19:31.508Z,99.70
2022-08-05T15:22:01.286Z,98.90
2022-08-05T15:24:28.802Z,99.90
2022-08-05T15:26:55.976Z,99.50
2022-08-05T15:29:30.316Z,99.60
2022-08-05T15:31:57.444Z,99.60
2022-08-05T15:34:32.180Z,99.90
2022-08-05T15:37:06.187Z,99.90
2022-08-05T15:40:58.916Z,99.60
2022-08-05T15:42:53.549Z,99.70
2022-08-05T15:45:11.271Z,98.70
2022-08-05T15:47:38.216Z,99.90
2022-08-05T15:50:07.280Z,98.10
2022-08-05T15:52:53.556Z,98.00
2022-08-05T15:55:25.045Z,99.80
2022-08-05T15:58:09.055Z,98.90
2022-08-05T16:00:50.721Z,99.40
2022-08-05T16:03:22.677Z,99.90
2022-08-05T16:05:52.576Z,98.80
2022-08-05T16:08:20.948Z,98.50
2022-08-05T16:10:50.883Z,98.80
2022-08-05T16:13:23.741Z,99.00
2022-08-05T16:15:51.882Z,99.20
2022-08-05T16:18:18.953Z,98.90
2022-08-05T16:20:46.589Z,96.70
2022-08-05T16:23:13.450Z,97.70
2022-08-05T16:25:41.586Z,90.60
2022-08-05T16:28:09.773Z,88.70
2022-08-05T16:33:05.757Z,86.80
2022-08-05T16:35:41.964Z,86.40
2022-08-05T16:38:16.871Z,86.80
2022-08-05T16:40:59.760Z,86.40
2022-08-05T16:43:30.331Z,87.90
2022-08-05T16:46:03.613Z,87.30
2022-08-05T16:48:35.920Z,86.70
2022-08-05T16:51:03.817Z,85.60
2022-08-05T16:54:05.766Z,85.60
2022-08-05T16:56:24.573Z,87.60
2022-08-05T16:58:51.586Z,87.40
2022-08-05T17:01:18.736Z,87.50
2022-08-05T17:03:46.007Z,88.90
2022-08-05T17:06:13.282Z,88.40
2022-08-05T17:08:53.582Z,90.30
2022-08-05T17:11:25.503Z,88.90
2022-08-05T17:14:00.629Z,90.30
2022-08-05T17:16:36.582Z,90.10
2022-08-05T17:19:07.775Z,90.50
2022-08-05T17:21:37.755Z,90.70
2022-08-05T17:24:19.757Z,90.60
2022-08-05T17:26:57.845Z,90.90
2022-08-05T17:29:33.749Z,91.20
2022-08-05T17:32:08.422Z,90.90
2022-08-05T17:34:38.537Z,91.40
2022-08-05T17:37:27.336Z,92.20
2022-08-05T17:39:55.205Z,91.50
2022-08-05T17:42:29.924Z,91.10
2022-08-05T17:44:59.457Z,91.50
2022-08-05T17:47:27.086Z,91.60
2022-08-05T17:50:03.882Z,91.30
2022-08-05T17:52:31.541Z,91.40
2022-08-05T17:54:58.346Z,92.50
2022-08-05T17:57:27.820Z,92.30
2022-08-05T18:00:03.367Z,92.40
2022-08-05T18:02:32.551Z,92.20
2022-08-05T18:05:02.773Z,93.00
2022-08-05T18:07:32.744Z,93.00
2022-08-05T18:10:10.385Z,93.00
2022-08-05T18:12:39.156Z,93.90
2022-08-05T18:15:08.842Z,93.20
2022-08-05T18:18:01.553Z,93.20
2022-08-05T18:20:29.534Z,93.10
2022-08-05T18:23:04.890Z,93.10
2022-08-05T18:25:39.034Z,93.00
2022-08-05T18:28:09.294Z,93.50
2022-08-05T18:30:40.179Z,93.50
2022-08-05T18:33:08.489Z,93.50
2022-08-05T18:36:01.086Z,93.60
2022-08-05T18:38:28.395Z,94.00
2022-08-05T18:41:54.320Z,94.10
2022-08-05T18:43:48.776Z,94.20
2022-08-05T18:46:19.719Z,94.20
2022-08-05T18:48:47.877Z,94.60
2022-08-05T18:52:03.255Z,94.40
2022-08-05T18:54:25.124Z,94.90
2022-08-05T18:56:52.188Z,95.20
2022-08-05T18:59:43.619Z,95.30
2022-08-05T19:02:11.337Z,95.60
2022-08-05T19:05:02.847Z,95.60
2022-08-05T19:07:45.140Z,95.90
2022-08-05T19:10:13.430Z,95.50
2022-08-05T19:12:40.513Z,95.90
2022-08-05T19:15:25.041Z,95.70
2022-08-05T19:18:08.633Z,95.80
2022-08-05T19:20:41.091Z,95.90
2022-08-05T19:23:08.765Z,95.60
2022-08-05T19:26:01.974Z,96.00
2022-08-05T19:28:30.030Z,95.90
2022-08-05T19:30:58.596Z,96.60
2022-08-05T19:33:35.642Z,97.50
2022-08-05T19:36:06.610Z,98.60
2022-08-05T19:38:33.992Z,99.40
2022-08-05T19:41:02.838Z,98.00
2022-08-05T19:44:05.940Z,98.80
2022-08-05T19:46:29.215Z,99.00
2022-08-05T19:48:57.508Z,99.60
2022-08-05T19:51:56.447Z,99.90
2022-08-05T19:54:22.811Z,99.90
2022-08-05T19:56:57.846Z,99.90
2022-08-05T19:59:54.800Z,99.90
2022-08-05T20:02:14.297Z,99.90
2022-08-05T20:04:43.208Z,99.90
2022-08-05T20:07:13.225Z,99.90
2022-08-05T20:09:54.102Z,99.90
2022-08-05T20:12:22.277Z,99.90
2022-08-05T20:14:52.298Z,99.90
2022-08-05T20:17:23.555Z,99.90
2022-08-05T20:19:50.797Z,99.90
2022-08-05T20:22:24.170Z,99.90
2022-08-05T20:24:53.785Z,99.90
2022-08-05T20:27:21.072Z,99.90
2022-08-05T20:29:58.236Z,99.90
2022-08-05T20:32:27.824Z,99.90
2022-08-05T20:34:55.035Z,99.90
2022-08-05T20:38:04.559Z,99.90
2022-08-05T20:40:10.257Z,99.90
2022-08-05T20:42:37.767Z,99.90
2022-08-05T20:45:07.539Z,99.90
2022-08-05T20:47:37.407Z,99.90
2022-08-05T20:50:08.801Z,99.90
2022-08-05T20:52:39.160Z,99.90
2022-08-05T20:55:55.269Z,99.90
2022-08-05T20:57:57.144Z,99.90
2022-08-05T21:00:51.861Z,99.90
2022-08-05T21:03:12.337Z,99.90
2022-08-05T21:05:54.078Z,99.90
2022-08-05T21:08:26.572Z,99.90
2022-08-05T21:11:00.166Z,99.90
2022-08-05T21:13:47.896Z,99.90
2022-08-05T21:16:19.164Z,99.90
2022-08-05T21:18:47.323Z,99.90
2022-08-05T21:21:14.677Z,99.90
2022-08-05T21:23:42.535Z,99.90
2022-08-05T21:26:14.450Z,99.90
2022-08-05T21:28:47.661Z,99.90
2022-08-05T21:31:14.901Z,99.90
2022-08-05T21:33:43.590Z,99.90
2022-08-05T21:36:19.208Z,99.90
2022-08-05T21:38:57.039Z,99.90
2022-08-05T21:41:25.971Z,99.90
2022-08-05T21:44:01.829Z,99.90
2022-08-05T21:46:31.725Z,99.90
2022-08-05T21:49:01.128Z,99.90
2022-08-05T21:52:22.580Z,99.90
2022-08-05T21:54:16.132Z,99.90
2022-08-05T21:57:15.126Z,99.90
2022-08-05T22:00:02.047Z,99.90
2022-08-05T22:02:28.037Z,99.90
2022-08-05T22:04:58.133Z,99.90
2022-08-05T22:07:40.521Z,99.90
2022-08-05T22:10:15.095Z,99.90
2022-08-05T22:12:44.795Z,99.90
2022-08-05T22:15:16.502Z,99.90
2022-08-05T22:18:01.473Z,99.90
2022-08-05T22:20:28.299Z,99.90
2022-08-05T22:23:17.228Z,99.90
2022-08-05T22:26:09.566Z,99.90
2022-08-05T22:28:37.794Z,99.90
2022-08-05T22:31:06.270Z,99.90
2022-08-05T22:33:58.343Z,99.90
2022-08-05T22:36:23.762Z,99.90
2022-08-05T22:38:53.678Z,99.90
2022-08-05T22:42:05.481Z,99.90
2022-08-05T22:44:08.847Z,99.90
2022-08-05T22:46:40.139Z,99.90
2022-08-05T22:49:08.069Z,99.90
2022-08-05T22:52:06.135Z,99.90
2022-08-05T22:54:36.384Z,99.90
2022-08-05T22:57:03.970Z,99.90
2022-08-05T22:59:46.500Z,99.90
2022-08-05T23:02:17.666Z,99.90
2022-08-05T23:04:51.086Z,99.90
2022-08-05T23:07:18.788Z,99.90
2022-08-05T23:09:53.482Z,99.90
2022-08-05T23:12:32.559Z,99.90
2022-08-05T23:15:01.379Z,99.90
2022-08-05T23:17:34.092Z,99.90
2022-08-05T23:20:16.820Z,99.90
2022-08-05T23:22:47.781Z,99.90
2022-08-05T23:25:52.859Z,99.90
2022-08-05T23:28:07.114Z,99.90
2022-08-05T23:33:21.950Z,99.90
2022-08-05T23:35:56.177Z,99.90
2022-08-05T23:38:24.257Z,99.90
2022-08-05T23:40:53.099Z,99.90
2022-08-05T23:43:24.371Z,99.90
2022-08-05T23:46:03.724Z,99.90
2022-08-05T23:48:30.613Z,99.90
2022-08-05T23:50:58.578Z,99.90
2022-08-05T23:53:28.546Z,99.90
2022-08-05T23:56:13.863Z,99.90
2022-08-05T23:58:47.097Z,99.90
